sensor_id;sensor_type;location;lat;lon;timestamp;P1;durP1;ratioP1;P2;durP2;ratioP2
23394;SDS011;11870;53.084;18.206;2022-10-04T00:04:11;5.80;;;1.60;;
23394;SDS011;11870;53.084;18.206;2022-10-04T00:06:43;4.63;;;1.30;;
23394;SDS011;11870;53.084;18.206;2022-10-04T00:09:33;6.32;;;1.20;;
23394;SDS011;11870;53.084;18.206;2022-10-04T00:12:13;2.75;;;1.00;;
23394;SDS011;11870;53.084;18.206;2022-10-04T00:14:55;5.50;;;1.30;;
23394;SDS011;11870;53.084;18.206;2022-10-04T00:17:27;7.90;;;1.65;;
23394;SDS011;11870;53.084;18.206;2022-10-04T00:19:56;5.85;;;1.40;;
23394;SDS011;11870;53.084;18.206;2022-10-04T00:22:30;4.32;;;1.63;;
23394;SDS011;11870;53.084;18.206;2022-10-04T00:27:32;6.25;;;1.75;;
23394;SDS011;11870;53.084;18.206;2022-10-04T00:32:29;10.23;;;2.10;;
23394;SDS011;11870;53.084;18.206;2022-10-04T00:34:57;14.13;;;2.92;;
23394;SDS011;11870;53.084;18.206;2022-10-04T00:37:25;7.32;;;2.10;;
23394;SDS011;11870;53.084;18.206;2022-10-04T00:39:55;7.50;;;2.40;;
23394;SDS011;11870;53.084;18.206;2022-10-04T00:42:36;8.88;;;2.03;;
23394;SDS011;11870;53.084;18.206;2022-10-04T00:45:19;9.88;;;2.42;;
23394;SDS011;11870;53.084;18.206;2022-10-04T00:54:17;14.07;;;2.60;;
23394;SDS011;11870;53.084;18.206;2022-10-04T00:56:55;7.70;;;2.10;;
23394;SDS011;11870;53.084;18.206;2022-10-04T01:02:02;10.77;;;2.75;;
23394;SDS011;11870;53.084;18.206;2022-10-04T01:04:51;11.73;;;3.05;;
23394;SDS011;11870;53.084;18.206;2022-10-04T01:07:26;10.50;;;4.07;;
23394;SDS011;11870;53.084;18.206;2022-10-04T01:09:59;15.43;;;5.15;;
23394;SDS011;11870;53.084;18.206;2022-10-04T01:17:27;19.98;;;6.05;;
23394;SDS011;11870;53.084;18.206;2022-10-04T01:19:53;18.45;;;6.88;;
23394;SDS011;11870;53.084;18.206;2022-10-04T01:22:31;12.75;;;5.93;;
23394;SDS011;11870;53.084;18.206;2022-10-04T01:25:00;18.98;;;6.40;;
23394;SDS011;11870;53.084;18.206;2022-10-04T01:30:08;16.75;;;7.50;;
23394;SDS011;11870;53.084;18.206;2022-10-04T01:32:37;21.67;;;8.68;;
23394;SDS011;11870;53.084;18.206;2022-10-04T01:35:05;21.50;;;10.02;;
23394;SDS011;11870;53.084;18.206;2022-10-04T01:37:32;19.70;;;9.80;;
23394;SDS011;11870;53.084;18.206;2022-10-04T01:39:59;19.27;;;8.20;;
23394;SDS011;11870;53.084;18.206;2022-10-04T01:42:26;15.80;;;7.75;;
23394;SDS011;11870;53.084;18.206;2022-10-04T01:47:34;14.45;;;7.60;;
23394;SDS011;11870;53.084;18.206;2022-10-04T01:50:16;13.77;;;5.82;;
23394;SDS011;11870;53.084;18.206;2022-10-04T01:52:49;15.95;;;5.00;;
23394;SDS011;11870;53.084;18.206;2022-10-04T01:55:23;13.48;;;4.85;;
23394;SDS011;11870;53.084;18.206;2022-10-04T01:57:55;13.63;;;6.38;;
23394;SDS011;11870;53.084;18.206;2022-10-04T02:00:25;19.52;;;7.35;;
23394;SDS011;11870;53.084;18.206;2022-10-04T02:02:56;13.77;;;6.80;;
23394;SDS011;11870;53.084;18.206;2022-10-04T02:05:34;19.13;;;6.53;;
23394;SDS011;11870;53.084;18.206;2022-10-04T02:08:09;9.23;;;3.63;;
23394;SDS011;11870;53.084;18.206;2022-10-04T02:10:40;14.45;;;3.05;;
23394;SDS011;11870;53.084;18.206;2022-10-04T02:13:10;12.00;;;3.03;;
23394;SDS011;11870;53.084;18.206;2022-10-04T02:15:42;13.95;;;3.00;;
23394;SDS011;11870;53.084;18.206;2022-10-04T02:18:17;9.65;;;2.60;;
23394;SDS011;11870;53.084;18.206;2022-10-04T02:20:46;11.65;;;2.33;;
23394;SDS011;11870;53.084;18.206;2022-10-04T02:23:14;9.90;;;2.00;;
23394;SDS011;11870;53.084;18.206;2022-10-04T02:25:42;8.52;;;2.08;;
23394;SDS011;11870;53.084;18.206;2022-10-04T02:28:09;11.45;;;3.90;;
23394;SDS011;11870;53.084;18.206;2022-10-04T02:31:09;14.43;;;8.07;;
23394;SDS011;11870;53.084;18.206;2022-10-04T02:33:49;14.35;;;8.02;;
23394;SDS011;11870;53.084;18.206;2022-10-04T02:36:16;24.70;;;10.68;;
23394;SDS011;11870;53.084;18.206;2022-10-04T02:38:46;20.13;;;8.30;;
23394;SDS011;11870;53.084;18.206;2022-10-04T02:41:24;13.68;;;5.57;;
23394;SDS011;11870;53.084;18.206;2022-10-04T02:46:30;12.32;;;3.90;;
23394;SDS011;11870;53.084;18.206;2022-10-04T02:49:01;9.45;;;3.22;;
23394;SDS011;11870;53.084;18.206;2022-10-04T02:51:39;17.48;;;3.35;;
23394;SDS011;11870;53.084;18.206;2022-10-04T02:56:56;15.32;;;3.17;;
23394;SDS011;11870;53.084;18.206;2022-10-04T02:59:23;12.98;;;4.22;;
23394;SDS011;11870;53.084;18.206;2022-10-04T03:01:54;14.35;;;5.65;;
23394;SDS011;11870;53.084;18.206;2022-10-04T03:04:26;14.63;;;6.40;;
23394;SDS011;11870;53.084;18.206;2022-10-04T03:06:55;12.20;;;5.22;;
23394;SDS011;11870;53.084;18.206;2022-10-04T03:09:23;13.70;;;4.70;;
23394;SDS011;11870;53.084;18.206;2022-10-04T03:11:50;14.00;;;5.15;;
23394;SDS011;11870;53.084;18.206;2022-10-04T03:14:18;12.95;;;5.50;;
23394;SDS011;11870;53.084;18.206;2022-10-04T03:16:46;13.70;;;5.22;;
23394;SDS011;11870;53.084;18.206;2022-10-04T03:19:15;10.40;;;4.45;;
23394;SDS011;11870;53.084;18.206;2022-10-04T03:21:44;15.02;;;6.30;;
23394;SDS011;11870;53.084;18.206;2022-10-04T03:24:19;12.52;;;4.90;;
23394;SDS011;11870;53.084;18.206;2022-10-04T03:26:51;10.98;;;4.47;;
23394;SDS011;11870;53.084;18.206;2022-10-04T03:29:20;12.45;;;5.90;;
23394;SDS011;11870;53.084;18.206;2022-10-04T03:31:48;16.52;;;5.63;;
23394;SDS011;11870;53.084;18.206;2022-10-04T03:34:17;9.77;;;4.40;;
23394;SDS011;11870;53.084;18.206;2022-10-04T03:36:46;11.60;;;4.35;;
23394;SDS011;11870;53.084;18.206;2022-10-04T03:39:19;12.18;;;3.65;;
23394;SDS011;11870;53.084;18.206;2022-10-04T03:41:52;16.83;;;4.22;;
23394;SDS011;11870;53.084;18.206;2022-10-04T03:44:18;11.30;;;3.63;;
23394;SDS011;11870;53.084;18.206;2022-10-04T03:46:45;7.70;;;3.90;;
23394;SDS011;11870;53.084;18.206;2022-10-04T03:49:14;10.57;;;3.90;;
23394;SDS011;11870;53.084;18.206;2022-10-04T03:51:48;10.40;;;4.15;;
23394;SDS011;11870;53.084;18.206;2022-10-04T03:54:15;18.08;;;5.82;;
23394;SDS011;11870;53.084;18.206;2022-10-04T03:56:47;15.65;;;6.72;;
23394;SDS011;11870;53.084;18.206;2022-10-04T03:59:17;15.65;;;7.07;;
23394;SDS011;11870;53.084;18.206;2022-10-04T04:01:44;18.30;;;8.05;;
23394;SDS011;11870;53.084;18.206;2022-10-04T04:09:38;12.80;;;6.20;;
23394;SDS011;11870;53.084;18.206;2022-10-04T04:12:09;9.55;;;4.75;;
23394;SDS011;11870;53.084;18.206;2022-10-04T04:14:48;12.43;;;5.13;;
23394;SDS011;11870;53.084;18.206;2022-10-04T04:19:51;12.02;;;6.10;;
23394;SDS011;11870;53.084;18.206;2022-10-04T04:22:18;24.13;;;14.25;;
23394;SDS011;11870;53.084;18.206;2022-10-04T04:24:45;29.05;;;15.93;;
23394;SDS011;11870;53.084;18.206;2022-10-04T04:27:11;27.98;;;16.75;;
23394;SDS011;11870;53.084;18.206;2022-10-04T04:32:23;26.55;;;14.35;;
23394;SDS011;11870;53.084;18.206;2022-10-04T04:34:59;25.67;;;14.88;;
23394;SDS011;11870;53.084;18.206;2022-10-04T04:37:33;24.05;;;14.50;;
23394;SDS011;11870;53.084;18.206;2022-10-04T04:40:10;23.05;;;13.50;;
23394;SDS011;11870;53.084;18.206;2022-10-04T04:42:47;25.63;;;13.85;;
23394;SDS011;11870;53.084;18.206;2022-10-04T04:45:14;20.98;;;12.82;;
23394;SDS011;11870;53.084;18.206;2022-10-04T04:47:44;24.58;;;13.52;;
23394;SDS011;11870;53.084;18.206;2022-10-04T04:50:17;21.95;;;13.23;;
23394;SDS011;11870;53.084;18.206;2022-10-04T04:52:44;19.38;;;11.70;;
23394;SDS011;11870;53.084;18.206;2022-10-04T04:55:14;19.20;;;10.40;;
23394;SDS011;11870;53.084;18.206;2022-10-04T04:57:50;21.40;;;10.00;;
23394;SDS011;11870;53.084;18.206;2022-10-04T05:00:21;23.73;;;12.55;;
23394;SDS011;11870;53.084;18.206;2022-10-04T05:02:54;20.42;;;11.40;;
23394;SDS011;11870;53.084;18.206;2022-10-04T05:07:48;14.98;;;8.23;;
23394;SDS011;11870;53.084;18.206;2022-10-04T05:12:56;19.27;;;10.48;;
23394;SDS011;11870;53.084;18.206;2022-10-04T05:15:26;20.73;;;11.95;;
23394;SDS011;11870;53.084;18.206;2022-10-04T05:17:56;23.52;;;12.38;;
23394;SDS011;11870;53.084;18.206;2022-10-04T05:20:24;27.38;;;12.65;;
23394;SDS011;11870;53.084;18.206;2022-10-04T05:22:50;25.95;;;14.40;;
23394;SDS011;11870;53.084;18.206;2022-10-04T05:25:32;22.15;;;14.35;;
23394;SDS011;11870;53.084;18.206;2022-10-04T05:27:58;25.45;;;14.48;;
23394;SDS011;11870;53.084;18.206;2022-10-04T05:30:29;24.25;;;14.93;;
23394;SDS011;11870;53.084;18.206;2022-10-04T05:33:07;31.20;;;16.42;;
23394;SDS011;11870;53.084;18.206;2022-10-04T05:41:07;28.38;;;18.77;;
23394;SDS011;11870;53.084;18.206;2022-10-04T05:43:44;30.65;;;19.33;;
23394;SDS011;11870;53.084;18.206;2022-10-04T05:46:14;30.20;;;15.45;;
23394;SDS011;11870;53.084;18.206;2022-10-04T05:48:50;21.70;;;12.05;;
23394;SDS011;11870;53.084;18.206;2022-10-04T05:51:23;16.25;;;12.27;;
23394;SDS011;11870;53.084;18.206;2022-10-04T05:53:52;21.02;;;11.25;;
23394;SDS011;11870;53.084;18.206;2022-10-04T06:20:08;7.25;;;3.40;;
23394;SDS011;11870;53.084;18.206;2022-10-04T06:22:47;6.25;;;3.05;;
23394;SDS011;11870;53.084;18.206;2022-10-04T06:25:25;6.45;;;2.45;;
23394;SDS011;11870;53.084;18.206;2022-10-04T06:30:27;6.38;;;2.47;;
23394;SDS011;11870;53.084;18.206;2022-10-04T06:38:58;4.82;;;1.70;;
23394;SDS011;11870;53.084;18.206;2022-10-04T06:53:11;4.60;;;1.65;;
23394;SDS011;11870;53.084;18.206;2022-10-04T07:01:30;4.30;;;1.58;;
23394;SDS011;11870;53.084;18.206;2022-10-04T07:06:46;5.78;;;1.45;;
23394;SDS011;11870;53.084;18.206;2022-10-04T07:10:07;4.45;;;1.85;;
23394;SDS011;11870;53.084;18.206;2022-10-04T07:13:04;3.40;;;1.48;;
23394;SDS011;11870;53.084;18.206;2022-10-04T07:18:24;5.07;;;1.55;;
23394;SDS011;11870;53.084;18.206;2022-10-04T07:21:13;2.75;;;1.40;;
23394;SDS011;11870;53.084;18.206;2022-10-04T07:23:55;4.03;;;1.55;;
23394;SDS011;11870;53.084;18.206;2022-10-04T07:26:32;3.90;;;1.50;;
23394;SDS011;11870;53.084;18.206;2022-10-04T07:29:16;2.38;;;1.38;;
23394;SDS011;11870;53.084;18.206;2022-10-04T07:31:50;3.20;;;1.30;;
23394;SDS011;11870;53.084;18.206;2022-10-04T07:34:49;3.92;;;1.40;;
23394;SDS011;11870;53.084;18.206;2022-10-04T07:37:24;2.00;;;1.30;;
23394;SDS011;11870;53.084;18.206;2022-10-04T07:40:17;4.38;;;1.35;;
23394;SDS011;11870;53.084;18.206;2022-10-04T07:42:52;3.75;;;1.27;;
23394;SDS011;11870;53.084;18.206;2022-10-04T07:45:28;3.83;;;1.40;;
23394;SDS011;11870;53.084;18.206;2022-10-04T07:56:14;6.18;;;2.92;;
23394;SDS011;11870;53.084;18.206;2022-10-04T08:04:31;1.63;;;1.15;;
23394;SDS011;11870;53.084;18.206;2022-10-04T08:07:14;4.47;;;1.10;;
23394;SDS011;11870;53.084;18.206;2022-10-04T08:25:52;2.53;;;1.20;;
23394;SDS011;11870;53.084;18.206;2022-10-04T08:28:38;3.10;;;0.95;;
23394;SDS011;11870;53.084;18.206;2022-10-04T08:40:50;6.18;;;1.30;;
23394;SDS011;11870;53.084;18.206;2022-10-04T08:50:00;3.28;;;0.93;;
23394;SDS011;11870;53.084;18.206;2022-10-04T09:11:04;1.05;;;0.75;;
23394;SDS011;11870;53.084;18.206;2022-10-04T09:22:55;1.35;;;0.93;;
23394;SDS011;11870;53.084;18.206;2022-10-04T09:34:34;3.92;;;1.25;;
23394;SDS011;11870;53.084;18.206;2022-10-04T09:45:53;2.05;;;1.05;;
23394;SDS011;11870;53.084;18.206;2022-10-04T09:48:37;2.67;;;1.00;;
23394;SDS011;11870;53.084;18.206;2022-10-04T09:53:51;1.40;;;0.98;;
23394;SDS011;11870;53.084;18.206;2022-10-04T09:59:37;2.00;;;1.10;;
23394;SDS011;11870;53.084;18.206;2022-10-04T10:08:14;1.80;;;1.05;;
23394;SDS011;11870;53.084;18.206;2022-10-04T10:11:09;2.13;;;0.70;;
23394;SDS011;11870;53.084;18.206;2022-10-04T10:19:57;1.40;;;0.80;;
23394;SDS011;11870;53.084;18.206;2022-10-04T10:25:54;1.45;;;0.88;;
23394;SDS011;11870;53.084;18.206;2022-10-04T10:28:45;1.95;;;0.93;;
23394;SDS011;11870;53.084;18.206;2022-10-04T10:48:54;1.02;;;0.80;;
23394;SDS011;11870;53.084;18.206;2022-10-04T10:54:31;3.22;;;0.50;;
23394;SDS011;11870;53.084;18.206;2022-10-04T10:57:43;2.80;;;0.60;;
23394;SDS011;11870;53.084;18.206;2022-10-04T11:00:51;2.90;;;0.80;;
23394;SDS011;11870;53.084;18.206;2022-10-04T11:15:08;2.83;;;0.90;;
23394;SDS011;11870;53.084;18.206;2022-10-04T11:27:01;0.85;;;0.60;;
23394;SDS011;11870;53.084;18.206;2022-10-04T11:37:56;1.27;;;0.80;;
23394;SDS011;11870;53.084;18.206;2022-10-04T11:49:33;1.40;;;0.85;;
23394;SDS011;11870;53.084;18.206;2022-10-04T12:09:47;1.35;;;0.70;;
23394;SDS011;11870;53.084;18.206;2022-10-04T12:12:27;0.60;;;0.60;;
23394;SDS011;11870;53.084;18.206;2022-10-04T12:29:34;1.13;;;0.70;;
23394;SDS011;11870;53.084;18.206;2022-10-04T13:02:01;0.77;;;0.60;;
23394;SDS011;11870;53.084;18.206;2022-10-04T13:24:19;3.22;;;0.70;;
23394;SDS011;11870;53.084;18.206;2022-10-04T13:27:03;1.05;;;0.70;;
23394;SDS011;11870;53.084;18.206;2022-10-04T13:29:57;2.30;;;0.95;;
23394;SDS011;11870;53.084;18.206;2022-10-04T13:32:45;1.02;;;0.70;;
23394;SDS011;11870;53.084;18.206;2022-10-04T13:35:33;1.27;;;0.70;;
23394;SDS011;11870;53.084;18.206;2022-10-04T13:40:54;1.08;;;0.70;;
23394;SDS011;11870;53.084;18.206;2022-10-04T13:43:30;1.05;;;0.80;;
23394;SDS011;11870;53.084;18.206;2022-10-04T13:46:33;0.77;;;0.70;;
23394;SDS011;11870;53.084;18.206;2022-10-04T13:49:15;3.30;;;1.00;;
23394;SDS011;11870;53.084;18.206;2022-10-04T13:51:57;2.72;;;1.00;;
23394;SDS011;11870;53.084;18.206;2022-10-04T13:54:54;1.13;;;0.70;;
23394;SDS011;11870;53.084;18.206;2022-10-04T13:57:49;1.33;;;0.80;;
23394;SDS011;11870;53.084;18.206;2022-10-04T14:00:50;3.08;;;0.90;;
23394;SDS011;11870;53.084;18.206;2022-10-04T14:09:36;2.65;;;0.65;;
23394;SDS011;11870;53.084;18.206;2022-10-04T14:23:10;1.33;;;0.85;;
23394;SDS011;11870;53.084;18.206;2022-10-04T14:45:19;0.82;;;0.75;;
23394;SDS011;11870;53.084;18.206;2022-10-04T14:48:17;1.33;;;0.95;;
23394;SDS011;11870;53.084;18.206;2022-10-04T15:10:50;3.60;;;1.10;;
23394;SDS011;11870;53.084;18.206;2022-10-04T15:19:03;1.42;;;1.00;;
23394;SDS011;11870;53.084;18.206;2022-10-04T15:29:31;0.93;;;0.77;;
23394;SDS011;11870;53.084;18.206;2022-10-04T15:42:50;1.85;;;0.90;;
23394;SDS011;11870;53.084;18.206;2022-10-04T15:50:53;1.02;;;0.90;;
23394;SDS011;11870;53.084;18.206;2022-10-04T15:54:02;3.08;;;1.17;;
23394;SDS011;11870;53.084;18.206;2022-10-04T16:04:40;3.28;;;1.77;;
23394;SDS011;11870;53.084;18.206;2022-10-04T16:13:19;3.97;;;2.10;;
23394;SDS011;11870;53.084;18.206;2022-10-04T16:18:48;4.47;;;1.77;;
23394;SDS011;11870;53.084;18.206;2022-10-04T16:31:57;4.82;;;2.50;;
23394;SDS011;11870;53.084;18.206;2022-10-04T16:34:43;7.40;;;3.15;;
23394;SDS011;11870;53.084;18.206;2022-10-04T16:37:16;7.45;;;2.90;;
23394;SDS011;11870;53.084;18.206;2022-10-04T16:42:32;7.60;;;2.67;;
23394;SDS011;11870;53.084;18.206;2022-10-04T16:47:36;6.00;;;2.22;;
23394;SDS011;11870;53.084;18.206;2022-10-04T16:56:22;6.78;;;2.72;;
23394;SDS011;11870;53.084;18.206;2022-10-04T17:01:54;9.20;;;2.35;;
23394;SDS011;11870;53.084;18.206;2022-10-04T17:07:12;7.30;;;2.65;;
23394;SDS011;11870;53.084;18.206;2022-10-04T17:09:48;6.88;;;3.33;;
23394;SDS011;11870;53.084;18.206;2022-10-04T17:15:32;6.88;;;3.92;;
23394;SDS011;11870;53.084;18.206;2022-10-04T17:20:53;16.67;;;6.43;;
23394;SDS011;11870;53.084;18.206;2022-10-04T17:34:22;12.95;;;6.40;;
23394;SDS011;11870;53.084;18.206;2022-10-04T17:39:50;12.70;;;6.72;;
23394;SDS011;11870;53.084;18.206;2022-10-04T17:48:29;12.38;;;5.88;;
23394;SDS011;11870;53.084;18.206;2022-10-04T17:57:40;13.23;;;6.95;;
23394;SDS011;11870;53.084;18.206;2022-10-04T18:03:50;14.98;;;7.30;;
23394;SDS011;11870;53.084;18.206;2022-10-04T18:06:26;19.50;;;8.57;;
23394;SDS011;11870;53.084;18.206;2022-10-04T18:11:50;23.00;;;9.73;;
23394;SDS011;11870;53.084;18.206;2022-10-04T18:14:37;17.70;;;8.82;;
23394;SDS011;11870;53.084;18.206;2022-10-04T18:17:37;14.50;;;7.85;;
23394;SDS011;11870;53.084;18.206;2022-10-04T18:20:15;17.67;;;8.48;;
23394;SDS011;11870;53.084;18.206;2022-10-04T18:23:01;15.95;;;7.93;;
23394;SDS011;11870;53.084;18.206;2022-10-04T18:25:41;15.25;;;8.32;;
23394;SDS011;11870;53.084;18.206;2022-10-04T18:33:14;15.05;;;6.97;;
23394;SDS011;11870;53.084;18.206;2022-10-04T18:38:23;16.90;;;7.80;;
23394;SDS011;11870;53.084;18.206;2022-10-04T18:40:57;25.60;;;11.60;;
23394;SDS011;11870;53.084;18.206;2022-10-04T18:48:53;31.38;;;11.68;;
23394;SDS011;11870;53.084;18.206;2022-10-04T18:51:26;25.02;;;10.30;;
23394;SDS011;11870;53.084;18.206;2022-10-04T18:54:27;26.08;;;10.52;;
23394;SDS011;11870;53.084;18.206;2022-10-04T19:00:00;22.10;;;10.35;;
23394;SDS011;11870;53.084;18.206;2022-10-04T19:02:57;24.58;;;10.88;;
23394;SDS011;11870;53.084;18.206;2022-10-04T19:11:11;26.13;;;11.18;;
23394;SDS011;11870;53.084;18.206;2022-10-04T19:17:08;28.23;;;11.18;;
23394;SDS011;11870;53.084;18.206;2022-10-04T19:22:25;24.52;;;9.77;;
23394;SDS011;11870;53.084;18.206;2022-10-04T19:27:56;24.15;;;9.00;;
23394;SDS011;11870;53.084;18.206;2022-10-04T19:33:16;24.25;;;8.77;;
23394;SDS011;11870;53.084;18.206;2022-10-04T19:36:39;24.30;;;9.88;;
23394;SDS011;11870;53.084;18.206;2022-10-04T19:41:56;20.95;;;8.57;;
23394;SDS011;11870;53.084;18.206;2022-10-04T19:57:58;13.23;;;6.03;;
23394;SDS011;11870;53.084;18.206;2022-10-04T20:00:41;15.20;;;6.03;;
23394;SDS011;11870;53.084;18.206;2022-10-04T20:03:08;13.45;;;6.50;;
23394;SDS011;11870;53.084;18.206;2022-10-04T20:05:40;13.15;;;6.03;;
23394;SDS011;11870;53.084;18.206;2022-10-04T20:08:12;15.60;;;6.95;;
23394;SDS011;11870;53.084;18.206;2022-10-04T20:10:40;19.50;;;7.28;;
23394;SDS011;11870;53.084;18.206;2022-10-04T20:15:53;19.25;;;7.45;;
23394;SDS011;11870;53.084;18.206;2022-10-04T20:29:06;14.57;;;5.60;;
23394;SDS011;11870;53.084;18.206;2022-10-04T20:34:21;16.80;;;6.50;;
23394;SDS011;11870;53.084;18.206;2022-10-04T20:36:56;14.70;;;6.22;;
23394;SDS011;11870;53.084;18.206;2022-10-04T20:42:53;14.70;;;6.38;;
23394;SDS011;11870;53.084;18.206;2022-10-04T20:47:42;10.30;;;5.35;;
23394;SDS011;11870;53.084;18.206;2022-10-04T20:52:59;12.98;;;6.07;;
23394;SDS011;11870;53.084;18.206;2022-10-04T20:55:45;12.98;;;5.43;;
23394;SDS011;11870;53.084;18.206;2022-10-04T21:01:21;15.25;;;6.43;;
23394;SDS011;11870;53.084;18.206;2022-10-04T21:06:50;12.75;;;5.72;;
23394;SDS011;11870;53.084;18.206;2022-10-04T21:09:17;11.95;;;6.20;;
23394;SDS011;11870;53.084;18.206;2022-10-04T21:11:43;14.23;;;6.25;;
23394;SDS011;11870;53.084;18.206;2022-10-04T21:14:21;11.73;;;5.47;;
23394;SDS011;11870;53.084;18.206;2022-10-04T21:16:52;10.77;;;5.70;;
23394;SDS011;11870;53.084;18.206;2022-10-04T21:21:57;15.10;;;6.00;;
23394;SDS011;11870;53.084;18.206;2022-10-04T21:29:57;14.98;;;6.85;;
23394;SDS011;11870;53.084;18.206;2022-10-04T21:32:24;16.90;;;5.88;;
23394;SDS011;11870;53.084;18.206;2022-10-04T21:34:51;16.50;;;7.07;;
23394;SDS011;11870;53.084;18.206;2022-10-04T21:37:17;17.88;;;6.25;;
23394;SDS011;11870;53.084;18.206;2022-10-04T21:39:43;13.02;;;6.53;;
23394;SDS011;11870;53.084;18.206;2022-10-04T21:42:09;13.95;;;6.40;;
23394;SDS011;11870;53.084;18.206;2022-10-04T21:44:35;15.20;;;6.68;;
23394;SDS011;11870;53.084;18.206;2022-10-04T21:47:01;15.45;;;6.50;;
23394;SDS011;11870;53.084;18.206;2022-10-04T21:49:28;13.07;;;6.00;;
23394;SDS011;11870;53.084;18.206;2022-10-04T21:51:53;13.73;;;6.43;;
23394;SDS011;11870;53.084;18.206;2022-10-04T21:54:19;15.60;;;7.05;;
23394;SDS011;11870;53.084;18.206;2022-10-04T21:56:45;15.20;;;6.25;;
23394;SDS011;11870;53.084;18.206;2022-10-04T21:59:11;13.73;;;7.15;;
23394;SDS011;11870;53.084;18.206;2022-10-04T22:01:37;12.10;;;6.53;;
23394;SDS011;11870;53.084;18.206;2022-10-04T22:04:03;13.48;;;7.03;;
23394;SDS011;11870;53.084;18.206;2022-10-04T22:06:28;17.40;;;7.32;;
23394;SDS011;11870;53.084;18.206;2022-10-04T22:08:54;16.33;;;6.40;;
23394;SDS011;11870;53.084;18.206;2022-10-04T22:11:20;12.38;;;6.45;;
23394;SDS011;11870;53.084;18.206;2022-10-04T22:13:46;15.50;;;7.55;;
23394;SDS011;11870;53.084;18.206;2022-10-04T22:16:13;11.13;;;5.85;;
23394;SDS011;11870;53.084;18.206;2022-10-04T22:18:39;16.48;;;6.78;;
23394;SDS011;11870;53.084;18.206;2022-10-04T22:21:05;14.32;;;7.35;;
23394;SDS011;11870;53.084;18.206;2022-10-04T22:23:35;14.65;;;7.45;;
23394;SDS011;11870;53.084;18.206;2022-10-04T22:26:10;14.00;;;6.78;;
23394;SDS011;11870;53.084;18.206;2022-10-04T22:31:13;14.93;;;7.85;;
23394;SDS011;11870;53.084;18.206;2022-10-04T22:33:42;16.38;;;7.95;;
23394;SDS011;11870;53.084;18.206;2022-10-04T22:36:26;16.20;;;7.65;;
23394;SDS011;11870;53.084;18.206;2022-10-04T22:41:36;16.77;;;7.13;;
23394;SDS011;11870;53.084;18.206;2022-10-04T22:44:20;13.20;;;6.60;;
23394;SDS011;11870;53.084;18.206;2022-10-04T22:46:53;14.38;;;6.97;;
23394;SDS011;11870;53.084;18.206;2022-10-04T22:49:23;19.95;;;8.13;;
23394;SDS011;11870;53.084;18.206;2022-10-04T22:51:51;17.70;;;8.07;;
23394;SDS011;11870;53.084;18.206;2022-10-04T22:54:19;18.83;;;8.32;;
23394;SDS011;11870;53.084;18.206;2022-10-04T22:56:47;17.05;;;7.57;;
23394;SDS011;11870;53.084;18.206;2022-10-04T22:59:14;16.90;;;7.63;;
23394;SDS011;11870;53.084;18.206;2022-10-04T23:01:42;23.08;;;8.60;;
23394;SDS011;11870;53.084;18.206;2022-10-04T23:04:21;19.45;;;8.63;;
23394;SDS011;11870;53.084;18.206;2022-10-04T23:06:50;18.45;;;7.38;;
23394;SDS011;11870;53.084;18.206;2022-10-04T23:09:17;14.73;;;7.78;;
23394;SDS011;11870;53.084;18.206;2022-10-04T23:11:44;16.52;;;7.78;;
23394;SDS011;11870;53.084;18.206;2022-10-04T23:14:10;16.58;;;8.10;;
23394;SDS011;11870;53.084;18.206;2022-10-04T23:16:37;16.45;;;8.20;;
23394;SDS011;11870;53.084;18.206;2022-10-04T23:19:16;16.00;;;7.68;;
23394;SDS011;11870;53.084;18.206;2022-10-04T23:21:45;17.08;;;7.10;;
23394;SDS011;11870;53.084;18.206;2022-10-04T23:24:14;18.88;;;7.53;;
23394;SDS011;11870;53.084;18.206;2022-10-04T23:26:41;13.68;;;7.90;;
23394;SDS011;11870;53.084;18.206;2022-10-04T23:29:20;19.65;;;8.32;;
23394;SDS011;11870;53.084;18.206;2022-10-04T23:31:49;15.50;;;8.02;;
23394;SDS011;11870;53.084;18.206;2022-10-04T23:34:27;18.17;;;8.70;;
23394;SDS011;11870;53.084;18.206;2022-10-04T23:36:58;17.23;;;7.60;;
23394;SDS011;11870;53.084;18.206;2022-10-04T23:39:29;21.27;;;8.13;;
23394;SDS011;11870;53.084;18.206;2022-10-04T23:41:56;18.33;;;7.90;;
23394;SDS011;11870;53.084;18.206;2022-10-04T23:44:23;14.63;;;7.28;;
23394;SDS011;11870;53.084;18.206;2022-10-04T23:47:01;18.27;;;7.70;;
23394;SDS011;11870;53.084;18.206;2022-10-04T23:49:29;16.17;;;7.60;;
23394;SDS011;11870;53.084;18.206;2022-10-04T23:51:56;20.55;;;7.82;;
23394;SDS011;11870;53.084;18.206;2022-10-04T23:54:25;16.77;;;7.88;;
23394;SDS011;11870;53.084;18.206;2022-10-04T23:56:51;16.40;;;8.10;;
23394;SDS011;11870;53.084;18.206;2022-10-04T23:59:18;16.02;;;7.85;;
